Time;durP1;ratioP1;P1;durP2;ratioP2;P2;SDS_P1;SDS_P2;PMS_P1;PMS_P2;Temp;Humidity;BMP_temperature;BMP_pressure;BME280_temperature;BME280_humidity;BME280_pressure;Samples;Min_cycle;Max_cycle;Signal;HPM_P1;HPM_P2
2022/06/11 00:00:21;;;;;;;18.05;6.53;;;;;;;15.79;89.80;101944.31;5070162;28;20030;-79
2022/06/11 00:02:47;;;;;;;19.70;6.43;;;;;;;15.77;89.42;101941.69;5069461;28;20032;-79
2022/06/11 00:05:12;;;;;;;19.08;6.85;;;;;;;15.76;89.74;101942.66;5065355;28;20028;-79
2022/06/11 00:07:38;;;;;;;18.20;6.70;;;;;;;15.77;89.55;101935.38;5064505;28;20387;-79
2022/06/11 00:10:05;;;;;;;19.42;6.72;;;;;;;15.77;89.52;101935.38;5066600;28;20153;-78
2022/06/11 00:12:31;;;;;;;13.10;5.85;;;;;;;15.75;89.40;101938.22;5069083;28;20033;-79
2022/06/11 00:14:56;;;;;;;23.83;6.15;;;;;;;15.75;89.24;101940.06;5068498;28;20658;-79
2022/06/11 00:17:23;;;;;;;19.20;6.30;;;;;;;15.75;89.15;101940.91;5068345;28;20037;-78
2022/06/11 00:19:49;;;;;;;16.00;6.25;;;;;;;15.76;89.00;101944.50;5067332;28;20045;-78
2022/06/11 00:22:17;;;;;;;16.02;5.78;;;;;;;15.75;89.26;101942.78;5069748;28;20032;-78
2022/06/11 00:24:44;;;;;;;17.20;5.95;;;;;;;15.72;88.91;101942.03;5062319;28;20387;-78
2022/06/11 00:27:10;;;;;;;15.85;5.72;;;;;;;15.69;89.32;101942.25;5062321;28;20028;-79
2022/06/11 00:29:38;;;;;;;17.35;5.68;;;;;;;15.65;89.31;101935.38;5067846;28;20078;-79
2022/06/11 00:32:05;;;;;;;22.30;6.38;;;;;;;15.62;89.18;101929.31;5066681;28;20028;-79
2022/06/11 00:34:30;;;;;;;14.13;5.70;;;;;;;15.58;89.37;101941.38;5068318;28;20756;-79
2022/06/11 00:36:56;;;;;;;17.67;5.90;;;;;;;15.55;89.09;101939.78;5069274;28;20036;-79
2022/06/11 00:39:32;;;;;;;18.25;6.50;;;;;;;15.51;89.22;101938.28;5063944;28;20024;-79
2022/06/11 00:42:06;;;;;;;16.27;6.00;;;;;;;15.45;89.46;101941.47;5062611;28;20432;-79
2022/06/11 00:44:32;;;;;;;16.23;6.20;;;;;;;15.38;89.42;101928.38;5068772;28;20028;-79
2022/06/11 00:47:00;;;;;;;16.50;5.95;;;;;;;15.31;90.00;101929.81;5069467;28;20020;-79
2022/06/11 00:49:28;;;;;;;18.40;6.18;;;;;;;15.28;90.26;101932.75;5062742;28;20067;-79
2022/06/11 00:52:17;;;;;;;17.38;6.22;;;;;;;15.26;89.56;101925.75;5066422;28;20111;-78
2022/06/11 00:54:46;;;;;;;18.63;6.97;;;;;;;15.20;90.62;101918.97;5061262;28;20028;-79
2022/06/11 00:57:12;;;;;;;14.38;5.68;;;;;;;15.20;90.49;101925.22;5063755;28;20059;-79
2022/06/11 00:59:46;;;;;;;18.02;6.20;;;;;;;15.17;90.85;101928.19;5064020;28;20154;-79
2022/06/11 01:02:12;;;;;;;17.10;6.57;;;;;;;15.14;90.95;101925.69;5065105;28;20503;-80
2022/06/11 01:04:44;;;;;;;20.25;6.07;;;;;;;15.15;91.23;101922.03;5067272;28;20028;-80
2022/06/11 01:07:23;;;;;;;18.58;6.22;;;;;;;15.16;90.97;101925.59;5069215;28;20058;-80
2022/06/11 01:10:10;;;;;;;18.75;6.45;;;;;;;15.19;90.74;101925.34;5058205;28;20033;-80
2022/06/11 01:12:49;;;;;;;15.18;5.68;;;;;;;15.16;91.05;101922.88;5057867;28;20124;-80
2022/06/11 01:15:20;;;;;;;21.70;6.28;;;;;;;15.15;91.34;101923.84;5065919;28;20028;-81
2022/06/11 01:17:52;;;;;;;16.27;5.57;;;;;;;15.11;91.11;101919.63;5068167;28;20526;-81
2022/06/11 01:20:26;;;;;;;20.48;7.22;;;;;;;15.11;91.49;101919.63;5067371;28;20044;-80
2022/06/11 01:23:28;;;;;;;18.27;6.43;;;;;;;15.14;91.22;101924.81;5067968;28;20484;-80
2022/06/11 01:26:09;;;;;;;20.52;7.72;;;;;;;15.15;91.36;101918.44;5064127;28;20033;-80
2022/06/11 01:29:02;;;;;;;19.83;7.78;;;;;;;15.12;91.41;101921.38;5082091;28;20118;-80
2022/06/11 01:31:34;;;;;;;17.88;7.63;;;;;;;15.11;91.50;101914.22;5065154;28;20040;-80
2022/06/11 01:34:18;;;;;;;17.27;6.80;;;;;;;15.11;91.49;101916.94;5068219;28;20032;-80
2022/06/11 01:36:47;;;;;;;17.55;7.30;;;;;;;15.10;91.79;101917.94;5065545;28;20043;-80
2022/06/11 01:39:17;;;;;;;;;;;;;;;15.18;90.01;101905.53;5066689;28;20023;-80
2022/06/11 01:41:52;;;;;;;19.08;7.47;;;;;;;15.10;91.43;101907.09;5067563;28;20368;-80
2022/06/11 01:44:25;;;;;;;18.33;7.13;;;;;;;15.08;91.70;101909.94;5066704;28;20480;-80
2022/06/11 01:46:52;;;;;;;22.50;7.13;;;;;;;15.07;91.58;101912.75;5068480;28;20032;-80
2022/06/11 01:49:20;;;;;;;17.13;6.97;;;;;;;15.03;91.56;101907.53;5066728;28;20062;-80
2022/06/11 01:52:16;;;;;;;19.83;7.13;;;;;;;15.02;91.02;101911.25;5068037;28;20050;-80
2022/06/11 01:55:07;;;;;;;19.58;6.70;;;;;;;15.02;91.34;101900.41;5067080;28;20420;-80
2022/06/11 01:58:05;;;;;;;20.25;7.95;;;;;;;14.99;91.57;101910.59;5060248;28;20039;-80
2022/06/11 02:00:35;;;;;;;19.73;6.63;;;;;;;14.92;91.91;101912.91;5062531;28;20035;-80
2022/06/11 02:03:44;;;;;;;19.23;7.68;;;;;;;14.94;91.25;101908.25;5052959;28;20020;-80
2022/06/11 02:06:28;;;;;;;16.77;6.70;;;;;;;14.91;92.10;101911.19;5061442;28;20053;-80
2022/06/11 02:09:14;;;;;;;20.20;6.95;;;;;;;14.90;91.69;101916.72;5064443;28;20482;-80
2022/06/11 02:11:41;;;;;;;19.52;6.50;;;;;;;14.88;92.08;101916.84;5065485;28;20413;-81
2022/06/11 02:14:36;;;;;;;19.10;6.47;;;;;;;14.88;91.33;101908.72;5067359;28;20059;-81
2022/06/11 02:17:06;;;;;;;19.02;6.38;;;;;;;14.83;92.04;101914.47;5067129;28;20055;-80
2022/06/11 02:19:44;;;;;;;15.85;6.00;;;;;;;14.83;92.26;101910.88;5061749;28;20048;-80
2022/06/11 02:22:25;;;;;;;17.92;7.10;;;;;;;14.81;91.84;101915.56;5066473;28;20437;-80
2022/06/11 02:25:01;;;;;;;17.23;5.90;;;;;;;14.79;91.21;101914.81;5067994;28;20025;-80
2022/06/11 02:27:31;;;;;;;16.48;6.07;;;;;;;14.73;91.97;101918.84;5073362;28;20047;-81
2022/06/11 02:29:57;;;;;;;16.13;6.25;;;;;;;14.68;91.72;101918.28;5069210;28;20032;-81
2022/06/11 02:32:27;;;;;;;19.10;6.43;;;;;;;14.66;92.13;101925.69;5071805;28;20141;-81
2022/06/11 02:34:57;;;;;;;17.95;6.25;;;;;;;14.61;91.86;101933.22;5065423;28;20032;-80
2022/06/11 02:37:30;;;;;;;14.02;5.80;;;;;;;14.58;91.88;101928.88;5070675;28;20028;-80
2022/06/11 02:40:02;;;;;;;18.85;6.20;;;;;;;14.57;92.07;101937.13;5064322;28;20058;-80
2022/06/11 02:42:27;;;;;;;18.85;5.55;;;;;;;14.56;91.92;101935.41;5068831;28;20035;-80
2022/06/11 02:44:52;;;;;;;15.32;5.70;;;;;;;14.55;92.15;101939.94;5070176;28;20024;-80
2022/06/11 02:47:20;;;;;;;17.25;5.82;;;;;;;14.58;92.12;101936.16;5072281;28;20036;-80
2022/06/11 02:49:46;;;;;;;15.88;5.40;;;;;;;14.54;91.92;101940.94;5070046;28;20399;-80
2022/06/11 02:52:18;;;;;;;17.73;5.72;;;;;;;14.50;92.39;101936.72;5069645;28;20345;-80
2022/06/11 02:54:44;;;;;;;16.67;6.57;;;;;;;14.46;91.87;101935.22;5071583;28;20028;-80
2022/06/11 02:57:15;;;;;;;15.05;4.85;;;;;;;14.40;91.64;101938.38;5071450;28;20476;-80
2022/06/11 02:59:43;;;;;;;16.60;5.50;;;;;;;14.35;92.06;101946.81;5067909;28;20368;-80
2022/06/11 03:02:09;;;;;;;14.63;5.18;;;;;;;14.36;92.39;101942.25;5069699;28;20033;-80
2022/06/11 03:04:34;;;;;;;15.82;5.68;;;;;;;14.39;93.18;101944.75;5069746;28;20055;-80
2022/06/11 03:07:01;;;;;;;14.10;4.70;;;;;;;14.37;92.56;101944.00;5072969;28;20032;-80
2022/06/11 03:09:31;;;;;;;18.23;6.03;;;;;;;14.38;92.51;101948.41;5068975;28;20032;-80
2022/06/11 03:11:57;;;;;;;14.18;4.75;;;;;;;14.40;92.57;101949.19;5069678;28;20028;-80
2022/06/11 03:14:23;;;;;;;19.60;6.18;;;;;;;14.41;93.42;101942.81;5068525;28;20025;-80
2022/06/11 03:16:50;;;;;;;17.63;5.38;;;;;;;14.48;93.71;101950.34;5069701;28;20052;-81
2022/06/11 03:19:15;;;;;;;15.52;5.57;;;;;;;14.52;93.95;101953.69;5068877;28;20067;-81
2022/06/11 03:21:41;;;;;;;15.50;5.78;;;;;;;14.58;94.00;101957.78;5070211;28;20032;-81
2022/06/11 03:24:07;;;;;;;15.82;6.40;;;;;;;14.61;93.67;101961.19;5069358;28;20400;-80
2022/06/11 03:26:33;;;;;;;14.90;5.50;;;;;;;14.66;93.44;101959.00;5067917;28;20036;-80
2022/06/11 03:28:58;;;;;;;15.27;5.82;;;;;;;14.68;94.29;101951.66;5068575;28;20027;-80
2022/06/11 03:31:24;;;;;;;18.10;5.20;;;;;;;14.74;93.85;101965.69;5069335;28;20153;-80
2022/06/11 03:33:49;;;;;;;18.55;5.72;;;;;;;14.76;93.96;101961.91;5061001;28;20024;-80
2022/06/11 03:36:17;;;;;;;16.17;5.13;;;;;;;14.77;94.12;101960.06;5070382;28;20043;-80
2022/06/11 03:38:44;;;;;;;15.32;5.78;;;;;;;14.80;94.07;101966.13;5068206;28;20032;-80
2022/06/11 03:41:11;;;;;;;15.50;5.68;;;;;;;14.83;93.53;101973.13;5070311;28;20024;-81
2022/06/11 03:43:37;;;;;;;15.23;5.38;;;;;;;14.87;93.78;101977.34;5057240;28;20158;-81
2022/06/11 03:46:04;;;;;;;17.65;5.60;;;;;;;14.89;93.48;101978.13;5068088;28;20358;-81
2022/06/11 03:48:30;;;;;;;14.68;5.20;;;;;;;14.90;94.08;101981.69;5072361;28;20081;-81
2022/06/11 03:50:58;;;;;;;14.57;5.50;;;;;;;14.92;93.01;101979.72;5069732;28;20103;-81
2022/06/11 03:53:24;;;;;;;18.40;5.35;;;;;;;14.94;93.33;101984.03;5070080;28;20034;-81
2022/06/11 03:55:49;;;;;;;15.60;5.65;;;;;;;14.96;93.57;101990.19;5071212;28;20029;-81
2022/06/11 03:58:18;;;;;;;13.43;5.20;;;;;;;14.99;92.98;101998.13;5071206;28;20043;-81
2022/06/11 04:03:28;;;;;;;14.18;4.95;;;;;;;15.03;93.62;101996.88;5070208;28;20070;-81
2022/06/11 04:05:54;;;;;;;15.93;5.72;;;;;;;15.05;93.85;102006.75;5064203;28;20087;-81
2022/06/11 04:08:22;;;;;;;12.93;4.93;;;;;;;15.06;92.86;101992.25;5064783;28;20028;-81
2022/06/11 04:10:48;;;;;;;14.15;5.50;;;;;;;15.08;92.99;101998.38;5065718;28;20028;-81
2022/06/11 04:13:14;;;;;;;14.85;5.03;;;;;;;15.11;92.31;101996.34;5066015;28;20025;-80
2022/06/11 04:15:41;;;;;;;14.88;4.75;;;;;;;15.15;91.88;102007.78;5069086;28;20028;-81
2022/06/11 04:18:07;;;;;;;17.25;6.03;;;;;;;15.17;92.22;102004.00;5069980;28;20020;-81
2022/06/11 04:20:34;;;;;;;18.88;5.57;;;;;;;15.21;92.11;102012.75;5067857;28;20045;-81
2022/06/11 04:23:00;;;;;;;14.32;5.07;;;;;;;15.23;92.89;102008.09;5068036;28;20033;-80
2022/06/11 04:25:26;;;;;;;14.30;4.78;;;;;;;15.24;92.06;102011.66;5063489;28;20114;-81
2022/06/11 04:27:53;;;;;;;16.65;5.22;;;;;;;15.25;92.67;102016.97;5067843;28;20492;-81
2022/06/11 04:30:20;;;;;;;19.73;5.65;;;;;;;15.28;92.69;102018.59;5065976;28;20468;-81
2022/06/11 04:32:45;;;;;;;13.00;4.43;;;;;;;15.29;92.25;102021.19;5067363;28;20135;-80
2022/06/11 04:35:11;;;;;;;13.10;4.45;;;;;;;15.30;92.79;102024.72;5063337;28;20032;-80
2022/06/11 04:37:36;;;;;;;16.77;5.65;;;;;;;15.31;92.16;102019.19;5055818;28;20024;-80
2022/06/11 04:40:04;;;;;;;14.43;4.60;;;;;;;15.34;92.77;102028.94;5063758;28;20487;-81
2022/06/11 04:42:29;;;;;;;13.23;4.90;;;;;;;15.33;91.76;102022.69;5067531;28;20036;-81
2022/06/11 04:44:55;;;;;;;13.00;4.90;;;;;;;15.35;91.30;102028.84;5060493;28;20021;-80
2022/06/11 04:47:25;;;;;;;16.25;5.18;;;;;;;15.37;91.53;102024.19;5068816;28;20104;-80
2022/06/11 04:49:53;;;;;;;15.35;5.28;;;;;;;15.38;90.35;102036.72;5057376;28;20119;-80
2022/06/11 04:52:20;;;;;;;15.27;5.45;;;;;;;15.39;89.45;102024.06;5055032;28;20173;-80
2022/06/11 04:54:45;;;;;;;14.43;4.72;;;;;;;15.41;89.03;102030.22;5068106;28;20043;-80
2022/06/11 04:57:11;;;;;;;15.45;5.18;;;;;;;15.41;88.16;102027.50;5063853;28;20029;-80
2022/06/11 04:59:36;;;;;;;18.15;5.35;;;;;;;15.44;88.16;102029.13;5068015;28;20039;-80
2022/06/11 05:02:02;;;;;;;19.38;5.57;;;;;;;15.42;87.19;102025.66;5066167;28;20135;-80
2022/06/11 05:04:28;;;;;;;20.30;5.35;;;;;;;15.46;87.35;102024.44;5068336;28;20059;-80
2022/06/11 05:06:54;;;;;;;17.80;4.72;;;;;;;15.51;86.91;102030.41;5067987;28;20117;-80
2022/06/11 05:09:22;;;;;;;15.50;4.70;;;;;;;15.53;86.28;102031.13;5063243;28;20169;-80
2022/06/11 05:11:48;;;;;;;13.10;4.38;;;;;;;15.56;85.91;102033.63;5063002;28;20036;-80
2022/06/11 05:14:14;;;;;;;22.48;5.78;;;;;;;15.59;86.81;102027.97;5067928;28;20040;-80
2022/06/11 05:16:42;;;;;;;17.17;5.20;;;;;;;15.60;85.46;102029.69;5066688;28;20167;-80
2022/06/11 05:19:08;;;;;;;14.50;4.45;;;;;;;15.62;85.16;102033.13;5069388;28;20480;-80
2022/06/11 05:21:34;;;;;;;14.02;4.82;;;;;;;15.61;82.21;102035.97;5065901;28;20497;-80
2022/06/11 05:24:00;;;;;;;17.33;4.55;;;;;;;15.63;82.71;102034.88;5068155;28;20033;-80
2022/06/11 05:26:32;;;;;;;17.50;4.90;;;;;;;15.65;82.09;102027.50;5067742;28;20178;-80
2022/06/11 05:28:57;;;;;;;18.40;4.47;;;;;;;15.64;81.62;102039.31;5056350;28;20033;-80
2022/06/11 05:31:22;;;;;;;16.98;4.88;;;;;;;15.67;80.10;102040.94;5057525;28;20024;-80
2022/06/11 05:33:48;;;;;;;13.65;4.45;;;;;;;15.67;79.18;102047.22;5067721;28;20388;-80
2022/06/11 05:36:14;;;;;;;19.08;4.57;;;;;;;15.71;79.54;102037.88;5065054;28;20511;-80
2022/06/11 05:38:40;;;;;;;19.10;4.22;;;;;;;15.73;77.75;102035.06;5063307;28;20029;-81
2022/06/11 05:41:05;;;;;;;14.85;4.30;;;;;;;15.73;78.85;102040.47;5067611;28;20031;-80
2022/06/11 05:43:31;;;;;;;16.17;3.97;;;;;;;15.76;77.59;102052.94;5069883;28;20028;-80
2022/06/11 05:46:02;;;;;;;15.27;4.07;;;;;;;15.78;76.95;102040.13;5067434;28;20028;-80
2022/06/11 05:48:32;;;;;;;13.52;3.95;;;;;;;15.82;78.27;102044.38;5068423;28;20024;-80
2022/06/11 05:50:59;;;;;;;19.08;4.75;;;;;;;15.83;78.16;102041.53;5066721;28;20427;-80
2022/06/11 05:53:28;;;;;;;13.98;3.67;;;;;;;15.85;75.68;102044.13;5067731;28;20034;-80
2022/06/11 05:55:55;;;;;;;;;;;;;;;15.92;78.40;102039.97;5070027;28;20032;-81
2022/06/11 05:58:29;;;;;;;15.95;3.63;;;;;;;15.91;76.24;102049.06;5070000;28;19919;-81
2022/06/11 06:00:56;;;;;;;14.90;3.58;;;;;;;15.89;75.94;102051.91;5069659;28;20036;-81
2022/06/11 06:03:21;;;;;;;15.77;3.83;;;;;;;15.92;72.74;102052.66;5071767;28;20024;-80
2022/06/11 06:05:46;;;;;;;18.35;4.95;;;;;;;15.92;73.20;102048.09;5071915;28;20024;-80
2022/06/11 06:08:12;;;;;;;20.00;3.95;;;;;;;15.92;73.19;102053.50;5059788;28;20676;-80
2022/06/11 06:10:37;;;;;;;17.95;4.43;;;;;;;15.93;73.17;102046.22;5069118;28;20033;-80
2022/06/11 06:13:45;;;;;;;20.42;4.43;;;;;;;15.93;73.63;102046.22;5071269;28;20056;-80
2022/06/11 06:15:50;;;;;;;17.40;4.03;;;;;;;15.96;72.76;102055.00;5072543;28;20530;-81
2022/06/11 06:18:15;;;;;;;16.50;4.13;;;;;;;15.99;72.77;102051.19;5070218;28;20096;-80
2022/06/11 06:20:41;;;;;;;18.92;5.10;;;;;;;16.00;72.66;102058.34;5071751;28;20102;-81
2022/06/11 06:23:06;;;;;;;14.68;3.65;;;;;;;16.05;72.63;102057.00;5071912;28;20325;-81
2022/06/11 06:25:31;;;;;;;15.50;3.67;;;;;;;16.11;73.09;102062.94;5064320;28;20025;-81
2022/06/11 06:27:56;;;;;;;22.08;4.55;;;;;;;16.16;73.04;102068.88;5062164;28;20434;-81
2022/06/11 06:30:22;;;;;;;12.88;4.55;;;;;;;16.18;71.82;102066.88;5068294;28;20082;-81
2022/06/11 06:32:47;;;;;;;14.55;4.10;;;;;;;16.24;72.94;102071.84;5070777;28;20028;-81
2022/06/11 06:35:12;;;;;;;20.80;4.80;;;;;;;16.28;71.98;102073.31;5071090;28;20021;-80
2022/06/11 06:37:38;;;;;;;19.08;4.38;;;;;;;16.35;74.08;102074.56;5070637;28;20043;-80
2022/06/11 06:40:04;;;;;;;18.65;4.30;;;;;;;16.38;72.01;102074.38;5068921;28;20029;-81
2022/06/11 06:42:30;;;;;;;20.95;4.75;;;;;;;16.40;72.31;102080.53;5068755;28;20048;-81
2022/06/11 06:44:57;;;;;;;23.67;4.35;;;;;;;16.42;72.96;102081.25;5071327;28;20067;-80
2022/06/11 06:47:22;;;;;;;18.98;4.72;;;;;;;16.43;71.35;102088.41;5069207;28;20037;-80
2022/06/11 06:49:47;;;;;;;21.15;4.90;;;;;;;16.43;71.93;102082.97;5069512;28;20154;-80
2022/06/11 06:52:13;;;;;;;23.20;4.65;;;;;;;16.43;72.41;102085.69;5072081;28;20119;-80
2022/06/11 06:54:38;;;;;;;22.52;4.72;;;;;;;16.41;71.61;102087.69;5072244;28;20471;-80
2022/06/11 06:57:04;;;;;;;18.80;4.55;;;;;;;16.40;72.20;102083.22;5069786;28;20456;-81
2022/06/11 06:59:29;;;;;;;21.85;4.80;;;;;;;16.41;72.23;102079.53;5065998;28;20610;-81
2022/06/11 07:01:55;;;;;;;20.48;4.32;;;;;;;16.43;72.73;102085.69;5066350;28;20062;-81
2022/06/11 07:04:20;;;;;;;28.17;5.72;;;;;;;16.48;72.17;102082.63;5069935;28;20029;-81
2022/06/11 07:06:45;;;;;;;21.92;4.63;;;;;;;16.56;71.31;102077.47;5071800;28;20024;-80
2022/06/11 07:09:11;;;;;;;21.17;5.53;;;;;;;16.66;71.60;102077.59;5067381;28;20073;-80
2022/06/11 07:11:36;;;;;;;17.88;4.72;;;;;;;16.77;71.86;102066.72;5068479;28;20051;-80
2022/06/11 07:14:01;;;;;;;25.45;4.70;;;;;;;16.86;72.46;102072.41;5070456;28;20495;-80
2022/06/11 07:16:38;;;;;;;18.80;4.60;;;;;;;16.88;72.35;102065.91;5069170;28;20127;-80
2022/06/11 07:19:11;;;;;;;20.27;5.25;;;;;;;16.91;72.22;102076.53;5065258;28;20565;-80
2022/06/11 07:21:42;;;;;;;16.92;4.53;;;;;;;16.94;71.14;102076.28;5068318;28;20020;-80
2022/06/11 07:24:13;;;;;;;20.67;4.75;;;;;;;17.02;71.61;102082.94;5070199;28;20066;-81
2022/06/11 07:26:43;;;;;;;21.45;4.40;;;;;;;17.04;71.22;102076.41;5070355;28;20028;-81
2022/06/11 07:29:15;;;;;;;;;;;;;;;17.08;73.22;102077.84;5069995;28;20499;-80
2022/06/11 07:31:44;;;;;;;22.67;4.80;;;;;;;17.16;72.62;102085.41;5063775;28;19912;-80
2022/06/11 07:34:11;;;;;;;15.68;5.10;;;;;;;17.26;72.93;102085.47;5069520;28;20093;-80
2022/06/11 07:36:37;;;;;;;26.98;5.22;;;;;;;17.25;71.16;102092.78;5067893;28;20058;-80
2022/06/11 07:39:02;;;;;;;22.27;5.55;;;;;;;17.25;71.69;102095.50;5070712;28;20024;-80
2022/06/11 07:41:28;;;;;;;25.02;5.57;;;;;;;17.28;72.43;102094.38;5066143;28;20113;-80
2022/06/11 07:43:53;;;;;;;21.48;5.47;;;;;;;17.25;71.16;102100.94;5069425;28;20043;-80
2022/06/11 07:46:18;;;;;;;18.95;5.88;;;;;;;17.24;71.23;102088.31;5068504;28;20049;-80
2022/06/11 07:48:44;;;;;;;21.08;4.97;;;;;;;17.27;70.56;102092.66;5069607;28;20040;-80
2022/06/11 07:51:09;;;;;;;20.02;5.10;;;;;;;17.38;73.53;102095.34;5069155;28;20035;-80
2022/06/11 07:53:35;;;;;;;21.90;4.68;;;;;;;17.38;70.50;102087.22;5068482;28;20363;-80
2022/06/11 07:56:00;;;;;;;22.48;4.85;;;;;;;17.39;70.87;102078.03;5066595;28;20029;-80
2022/06/11 07:58:30;;;;;;;20.17;5.90;;;;;;;17.41;72.85;102076.06;5062932;28;20056;-80
2022/06/11 08:00:57;;;;;;;23.02;5.30;;;;;;;17.43;73.81;102084.97;5068467;28;20028;-80
2022/06/11 08:03:23;;;;;;;25.23;5.63;;;;;;;17.45;71.69;102090.25;5059652;28;20061;-79
2022/06/11 08:05:49;;;;;;;22.73;5.63;;;;;;;17.45;70.89;102106.56;5061773;28;20031;-80
2022/06/11 08:08:17;;;;;;;23.52;5.32;;;;;;;17.51;72.41;102095.22;5067372;28;20036;-80
2022/06/11 08:10:43;;;;;;;24.13;5.70;;;;;;;17.56;70.14;102092.97;5069184;28;20036;-80
2022/06/11 08:13:09;;;;;;;25.60;6.30;;;;;;;17.62;69.27;102095.16;5068272;28;20425;-81
2022/06/11 08:15:36;;;;;;;22.63;5.10;;;;;;;17.73;71.02;102101.56;5070024;28;20032;-80
2022/06/11 08:18:01;;;;;;;23.25;5.05;;;;;;;17.76;69.43;102104.88;5065214;28;20056;-80
2022/06/11 08:20:29;;;;;;;19.10;5.00;;;;;;;17.79;68.81;102095.63;5062260;28;20041;-79
2022/06/11 08:22:55;;;;;;;22.95;4.90;;;;;;;17.89;69.54;102103.84;5068621;28;20402;-79
2022/06/11 08:25:22;;;;;;;20.20;5.40;;;;;;;17.88;68.97;102104.81;5069407;28;20132;-79
2022/06/11 08:27:48;;;;;;;29.60;6.50;;;;;;;17.91;69.94;102101.91;5068602;28;20107;-79
2022/06/11 08:30:16;;;;;;;25.70;5.75;;;;;;;17.96;69.64;102099.66;5061148;28;20039;-79
2022/06/11 08:32:41;;;;;;;23.63;5.35;;;;;;;18.01;69.23;102102.84;5061129;28;20356;-79
2022/06/11 08:35:08;;;;;;;19.02;4.93;;;;;;;18.11;68.88;102105.63;5067684;28;20033;-80
2022/06/11 08:37:34;;;;;;;21.25;5.13;;;;;;;18.25;70.68;102107.19;5066287;28;20115;-80
2022/06/11 08:39:59;;;;;;;16.73;4.28;;;;;;;18.37;69.20;102107.97;5066390;28;20123;-80
2022/06/11 08:42:35;;;;;;;27.80;6.22;;;;;;;18.44;68.53;102106.44;5066692;28;20046;-80
2022/06/11 08:45:06;;;;;;;26.90;5.43;;;;;;;18.47;66.13;102117.06;5071544;28;20022;-80
2022/06/11 08:47:43;;;;;;;22.20;4.82;;;;;;;18.49;65.23;102115.94;5066788;28;20527;-80
2022/06/11 08:50:14;;;;;;;19.60;4.72;;;;;;;18.48;64.84;102124.25;5062001;28;20020;-80
2022/06/11 08:52:39;;;;;;;23.38;5.13;;;;;;;18.47;64.94;102126.09;5064887;28;20035;-80
2022/06/11 08:55:05;;;;;;;25.05;5.72;;;;;;;18.45;65.31;102119.94;5065133;28;20025;-81
2022/06/11 08:57:47;;;;;;;18.52;4.70;;;;;;;18.48;66.40;102106.03;5066119;28;20481;-80
2022/06/11 09:00:22;;;;;;;23.05;4.93;;;;;;;18.49;66.74;102113.22;5069569;28;20109;-80
2022/06/11 09:03:04;;;;;;;20.77;6.18;;;;;;;18.47;65.86;102114.34;5065063;28;20024;-80
2022/06/11 09:05:51;;;;;;;20.17;4.68;;;;;;;18.49;68.40;102121.41;5067171;28;20356;-80
2022/06/11 09:08:19;;;;;;;21.80;5.22;;;;;;;18.51;65.98;102116.66;5067687;28;20039;-79
2022/06/11 09:11:18;;;;;;;22.95;5.88;;;;;;;18.52;65.82;102115.69;5069929;28;20059;-79
2022/06/11 09:13:49;;;;;;;24.40;5.18;;;;;;;18.53;66.63;102116.53;5065699;28;20486;-80
2022/06/11 09:16:29;;;;;;;19.17;4.47;;;;;;;18.52;66.46;102112.06;5066639;28;20424;-80
2022/06/11 09:19:09;;;;;;;18.42;4.43;;;;;;;18.50;65.76;102106.75;5061586;28;20041;-80
2022/06/11 09:21:42;;;;;;;;;;;;;;;18.56;67.10;102118.13;5063759;28;20119;-80
2022/06/11 09:24:32;;;;;;;23.95;5.63;;;;;;;18.62;67.12;102117.59;5068930;28;19916;-80
2022/06/11 09:27:28;;;;;;;29.35;6.45;;;;;;;18.63;66.13;102111.16;5051231;28;20092;-80
2022/06/11 09:30:08;;;;;;;29.17;6.53;;;;;;;18.62;65.40;102102.09;5050318;28;20021;-80
2022/06/11 09:32:43;;;;;;;23.30;6.28;;;;;;;18.64;65.49;102104.72;5071727;28;20024;-80
2022/06/11 09:35:14;;;;;;;25.20;6.65;;;;;;;18.66;63.94;102113.59;5070503;28;20336;-80
2022/06/11 09:37:42;;;;;;;17.52;4.85;;;;;;;18.72;65.62;102113.06;5070797;28;20838;-80
2022/06/11 09:40:50;;;;;;;21.92;5.35;;;;;;;18.78;66.43;102117.94;5073663;28;20052;-79
2022/06/11 09:43:24;;;;;;;21.08;5.15;;;;;;;18.83;63.67;102109.41;5070652;28;20082;-79
2022/06/11 09:46:11;;;;;;;20.77;4.53;;;;;;;18.89;60.58;102110.72;5067099;28;20380;-80
2022/06/11 09:49:06;;;;;;;23.48;4.57;;;;;;;18.99;63.08;102101.63;5058941;28;20029;-79
2022/06/11 09:51:47;;;;;;;19.73;3.63;;;;;;;19.04;56.69;102101.19;5069502;28;20049;-78
2022/06/11 09:54:34;;;;;;;17.58;3.72;;;;;;;19.11;58.78;102101.53;5068465;28;20025;-78
2022/06/11 09:57:19;;;;;;;16.05;3.40;;;;;;;19.18;58.91;102108.13;5073165;28;20031;-79
2022/06/11 09:59:49;;;;;;;12.48;3.33;;;;;;;19.16;59.93;102110.97;5073725;28;20028;-78
2022/06/11 10:03:08;;;;;;;21.67;4.55;;;;;;;19.17;58.26;102115.44;5075129;28;20494;-80
2022/06/11 10:05:52;;;;;;;;;;;;;;;19.21;61.32;102113.31;5015841;28;20071;-79
2022/06/11 10:08:37;;;;;;;19.10;4.22;;;;;;;19.21;59.65;102111.44;5030779;28;19916;-79
2022/06/11 10:11:05;;;;;;;20.40;4.65;;;;;;;19.25;58.78;102112.00;5015417;28;20037;-79
2022/06/11 10:13:43;;;;;;;22.73;4.68;;;;;;;19.27;58.73;102111.88;5030934;28;20053;-79
2022/06/11 10:16:32;;;;;;;21.13;4.38;;;;;;;19.26;59.91;102110.16;5032222;28;20038;-79
2022/06/11 10:19:11;;;;;;;23.30;4.60;;;;;;;19.28;59.12;102113.59;5014083;28;20049;-79
2022/06/11 10:21:42;;;;;;;21.13;5.13;;;;;;;19.29;58.04;102105.28;5030196;28;20075;-79
2022/06/11 10:24:14;;;;;;;21.23;4.43;;;;;;;19.33;60.20;102114.06;5013987;28;20133;-78
2022/06/11 10:26:50;;;;;;;22.58;4.57;;;;;;;19.34;57.17;102118.50;5009403;28;20393;-78
2022/06/11 10:29:26;;;;;;;24.10;4.78;;;;;;;19.42;58.29;102121.41;5029905;28;20037;-79
2022/06/11 10:31:58;;;;;;;14.90;3.70;;;;;;;19.47;58.10;102116.38;5013292;28;20025;-79
2022/06/11 10:34:28;;;;;;;18.58;4.10;;;;;;;19.51;58.29;102120.53;5028647;28;20052;-79
2022/06/11 10:36:53;;;;;;;15.93;3.80;;;;;;;19.55;58.69;102124.72;5006601;28;20487;-79
2022/06/11 10:39:43;;;;;;;27.65;5.03;;;;;;;19.58;58.74;102122.72;5027901;28;20116;-78
2022/06/11 10:42:14;;;;;;;23.67;5.18;;;;;;;19.61;59.92;102123.31;5058689;28;20112;-79
2022/06/11 10:44:45;;;;;;;22.63;4.97;;;;;;;19.67;58.78;102124.59;5070496;28;20028;-80
2022/06/11 10:47:35;;;;;;;16.67;3.85;;;;;;;19.74;60.09;102120.31;5055456;28;20731;-79
2022/06/11 10:50:29;;;;;;;16.70;4.05;;;;;;;19.76;59.31;102123.75;5074040;28;20028;-78
2022/06/11 10:53:26;;;;;;;23.10;5.10;;;;;;;19.79;58.99;102117.19;5070618;28;20037;-79
2022/06/11 10:56:03;;;;;;;18.63;5.07;;;;;;;19.77;57.74;102114.56;5067943;28;20036;-79
2022/06/11 10:58:56;;;;;;;24.08;5.38;;;;;;;19.82;58.13;102112.28;5071591;28;20036;-80
2022/06/11 11:01:30;;;;;;;19.13;4.15;;;;;;;19.87;59.84;102106.44;5051981;28;20060;-79
2022/06/11 11:04:06;;;;;;;23.27;5.10;;;;;;;19.92;60.35;102111.47;5055682;28;20020;-80
2022/06/11 11:06:35;;;;;;;16.40;4.95;;;;;;;19.96;58.18;102107.44;5070970;28;20561;-80
2022/06/11 11:09:11;;;;;;;20.25;5.45;;;;;;;19.99;57.94;102113.47;5072005;28;20068;-78
2022/06/11 11:11:48;;;;;;;22.13;5.05;;;;;;;20.04;58.73;102111.16;5072497;28;20033;-79
2022/06/11 11:14:25;;;;;;;21.17;5.75;;;;;;;20.13;58.46;102101.22;5072924;28;20036;-79
2022/06/11 11:16:52;;;;;;;21.23;5.63;;;;;;;20.16;59.76;102109.16;5061403;28;20024;-79
2022/06/11 11:19:42;;;;;;;23.92;6.45;;;;;;;20.21;60.08;102086.88;5072997;28;20420;-79
2022/06/11 11:22:15;;;;;;;23.13;6.35;;;;;;;20.19;57.75;102092.50;5070947;28;20044;-80
2022/06/11 11:24:44;;;;;;;21.88;5.93;;;;;;;20.17;57.66;102099.94;5070534;28;20085;-80
2022/06/11 11:27:21;;;;;;;18.98;6.18;;;;;;;20.16;58.69;102094.63;5071838;28;20077;-79
2022/06/11 11:30:15;;;;;;;21.10;5.03;;;;;;;20.15;58.91;102090.19;5072356;28;20024;-79
2022/06/11 11:32:42;;;;;;;23.05;5.97;;;;;;;20.17;58.68;102099.09;5054504;28;20032;-79
2022/06/11 11:35:22;;;;;;;28.15;6.32;;;;;;;20.16;57.51;102081.88;5072894;28;20039;-79
2022/06/11 11:38:12;;;;;;;20.50;5.80;;;;;;;20.28;59.30;102081.69;5069064;28;20036;-79
2022/06/11 11:40:59;;;;;;;21.00;6.22;;;;;;;20.27;58.23;102080.81;5063093;28;20036;-80